createdAt,value
2019-02-24T00:01:46.138Z,101568.17
2019-02-24T00:06:51.341Z,101552.64
2019-02-24T00:11:56.625Z,101553.16
2019-02-24T00:17:01.958Z,101551.51
2019-02-24T00:22:07.217Z,101562.10
2019-02-24T00:27:12.548Z,101560.80
2019-02-24T00:32:17.883Z,101574.62
2019-02-24T00:37:23.050Z,101582.10
2019-02-24T00:42:28.298Z,101577.62
2019-02-24T00:47:33.541Z,101593.73
2019-02-24T00:52:38.834Z,101588.02
2019-02-24T00:57:44.182Z,101569.90
2019-02-24T01:02:49.529Z,101573.53
2019-02-24T01:07:54.891Z,101568.36
2019-02-24T01:13:00.244Z,101559.56
2019-02-24T01:18:05.497Z,101564.58
2019-02-24T01:23:10.729Z,101551.00
2019-02-24T01:28:24.858Z,101548.91
2019-02-24T01:33:30.706Z,101541.52
2019-02-24T01:38:36.062Z,101530.08
2019-02-24T01:43:41.314Z,101541.63
2019-02-24T01:48:46.478Z,101538.16
2019-02-24T01:53:51.759Z,101537.25
2019-02-24T01:58:57.012Z,101529.73
2019-02-24T02:04:02.289Z,101525.75
2019-02-24T02:09:08.069Z,101536.43
2019-02-24T02:14:13.410Z,101529.78
2019-02-24T02:19:18.678Z,101530.20
2019-02-24T02:24:23.919Z,101532.47
2019-02-24T02:29:29.185Z,101524.92
2019-02-24T02:34:34.486Z,101530.67
2019-02-24T02:39:39.922Z,101533.77
2019-02-24T02:44:45.218Z,101528.48
2019-02-24T02:49:50.379Z,101532.91
2019-02-24T02:54:55.584Z,101539.59
2019-02-24T03:00:00.857Z,101534.27
2019-02-24T03:05:06.681Z,101542.27
2019-02-24T03:10:11.959Z,101548.05
2019-02-24T03:15:17.230Z,101544.09
2019-02-24T03:20:22.900Z,101543.18
2019-02-24T03:25:28.139Z,101552.05
2019-02-24T03:30:33.537Z,101546.27
2019-02-24T03:35:38.738Z,101546.27
2019-02-24T03:40:44.049Z,101547.17
2019-02-24T03:45:49.328Z,101541.83
2019-02-24T03:50:54.556Z,101545.84
2019-02-24T03:55:59.790Z,101548.50
2019-02-24T04:01:05.171Z,101533.43
2019-02-24T04:06:10.470Z,101539.18
2019-02-24T04:11:15.723Z,101545.39
2019-02-24T04:16:20.993Z,101543.62
2019-02-24T04:21:26.234Z,101540.06
2019-02-24T04:26:31.569Z,101540.06
2019-02-24T04:31:36.756Z,101529.00
2019-02-24T04:36:42.008Z,101522.80
2019-02-24T04:41:47.206Z,101522.80
2019-02-24T04:46:52.482Z,101527.69
2019-02-24T04:51:57.863Z,101528.12
2019-02-24T04:57:03.220Z,101534.75
2019-02-24T05:02:08.465Z,101531.64
2019-02-24T05:07:13.753Z,101528.55
2019-02-24T05:12:19.072Z,101532.98
2019-02-24T05:17:24.297Z,101542.73
2019-02-24T05:22:29.589Z,101540.98
2019-02-24T05:27:34.898Z,101544.53
2019-02-24T05:32:40.106Z,101537.84
2019-02-24T05:37:45.413Z,101548.47
2019-02-24T05:42:50.684Z,101553.80
2019-02-24T05:47:55.971Z,101565.31
2019-02-24T05:53:01.240Z,101548.06
2019-02-24T05:58:06.469Z,101563.11
2019-02-24T06:03:11.675Z,101572.43
2019-02-24T06:08:17.125Z,101564.89
2019-02-24T06:13:23.223Z,101575.50
2019-02-24T06:18:28.493Z,101571.99
2019-02-24T06:23:33.795Z,101574.19
2019-02-24T06:28:39.089Z,101587.03
2019-02-24T06:33:44.428Z,101578.20
2019-02-24T06:38:49.664Z,101586.63
2019-02-24T06:43:55.028Z,101577.32
2019-02-24T06:49:00.270Z,101583.97
2019-02-24T06:54:05.586Z,101581.31
2019-02-24T06:59:10.919Z,101602.15
2019-02-24T07:04:16.327Z,101583.97
2019-02-24T07:09:21.710Z,101594.14
2019-02-24T07:14:26.944Z,101583.97
2019-02-24T07:19:32.230Z,101590.18
2019-02-24T07:24:37.542Z,101599.91
2019-02-24T07:29:42.843Z,101607.89
2019-02-24T07:34:49.540Z,101599.48
2019-02-24T07:39:54.918Z,101603.48
2019-02-24T07:45:00.294Z,101609.24
2019-02-24T07:50:05.808Z,101622.08
2019-02-24T07:55:11.208Z,101626.06
2019-02-24T08:00:16.554Z,101622.97
2019-02-24T08:05:21.861Z,101626.94
2019-02-24T08:10:27.188Z,101631.83
2019-02-24T08:15:32.429Z,101641.57
2019-02-24T08:20:37.878Z,101642.45
2019-02-24T08:25:43.231Z,101638.91
2019-02-24T08:30:48.557Z,101637.13
2019-02-24T08:35:55.279Z,101643.78
2019-02-24T08:41:00.486Z,101642.89
2019-02-24T08:46:05.819Z,101642.44
2019-02-24T08:51:11.079Z,101642.86
2019-02-24T08:56:16.324Z,101642.86
2019-02-24T09:01:21.544Z,101657.91
2019-02-24T09:06:27.073Z,101675.13
2019-02-24T09:11:32.357Z,101675.13
2019-02-24T09:16:37.620Z,101674.66
2019-02-24T09:21:42.987Z,101677.71
2019-02-24T09:26:48.219Z,101673.19
2019-02-24T09:31:53.559Z,101680.53
2019-02-24T09:36:59.006Z,101679.48
2019-02-24T09:42:06.754Z,101686.31
2019-02-24T09:47:12.130Z,101685.29
2019-02-24T09:52:17.445Z,101690.83
2019-02-24T09:57:23.366Z,101682.44
2019-02-24T10:02:28.732Z,101691.37
2019-02-24T10:07:34.322Z,101685.25
2019-02-24T10:12:42.606Z,101687.58
2019-02-24T10:17:47.866Z,101692.06
2019-02-24T10:22:53.225Z,101699.14
2019-02-24T10:27:58.515Z,101694.83
2019-02-24T10:33:03.864Z,101696.17
2019-02-24T10:38:09.269Z,101694.37
2019-02-24T10:43:14.672Z,101681.95
2019-02-24T10:48:19.995Z,101692.31
2019-02-24T10:53:28.300Z,101695.83
2019-02-24T10:58:34.887Z,101702.59
2019-02-24T11:03:40.561Z,101708.03
2019-02-24T11:08:46.207Z,101706.80
2019-02-24T11:13:51.632Z,101705.80
2019-02-24T11:18:57.030Z,101699.92
2019-02-24T11:24:02.462Z,101713.65
2019-02-24T11:29:07.730Z,101710.80
2019-02-24T11:34:13.077Z,101716.67
2019-02-24T11:39:20.563Z,101710.81
2019-02-24T11:44:25.869Z,101715.54
2019-02-24T11:49:31.098Z,101714.22
2019-02-24T11:54:36.368Z,101709.55
2019-02-24T11:59:41.738Z,101720.30
2019-02-24T12:04:46.951Z,101708.90
2019-02-24T12:09:52.243Z,101709.88
2019-02-24T12:14:57.533Z,101704.11
2019-02-24T12:20:02.786Z,101703.12
2019-02-24T12:25:08.543Z,101711.99
2019-02-24T12:30:13.827Z,101700.31
2019-02-24T12:35:19.161Z,101694.45
2019-02-24T12:40:26.983Z,101687.83
2019-02-24T12:45:32.149Z,101683.79
2019-02-24T12:50:37.333Z,101672.28
2019-02-24T12:55:42.687Z,101672.86
2019-02-24T13:00:48.201Z,101666.00
2019-02-24T13:05:53.593Z,101653.73
2019-02-24T13:10:59.091Z,101618.16
2019-02-24T13:16:04.518Z,101616.09
2019-02-24T13:21:11.738Z,101620.66
2019-02-24T13:26:16.974Z,101613.61
2019-02-24T13:31:22.358Z,101608.80
2019-02-24T13:36:27.643Z,101600.05
2019-02-24T13:41:33.008Z,101615.05
2019-02-24T13:46:40.887Z,101610.88
2019-02-24T13:51:46.228Z,101602.95
2019-02-24T13:56:52.630Z,101593.55
2019-02-24T14:01:57.823Z,101583.95
2019-02-24T14:07:04.041Z,101584.91
2019-02-24T14:12:09.299Z,101578.74
2019-02-24T14:17:14.929Z,101578.70
2019-02-24T14:22:20.242Z,101590.31
2019-02-24T14:27:25.605Z,101591.84
2019-02-24T14:32:32.997Z,101605.27
2019-02-24T14:37:37.818Z,101589.97
2019-02-24T14:42:44.020Z,101593.78
2019-02-24T14:47:49.496Z,101604.14
2019-02-24T14:52:55.098Z,101594.22
2019-02-24T14:58:00.333Z,101598.55
2019-02-24T15:03:05.704Z,101597.13
2019-02-24T15:08:13.933Z,101593.31
2019-02-24T15:13:19.192Z,101580.31
2019-02-24T15:18:24.583Z,101569.86
2019-02-24T15:23:29.918Z,101581.78
2019-02-24T15:28:35.171Z,101580.97
2019-02-24T15:33:41.245Z,101588.03
2019-02-24T15:38:48.242Z,101583.77
2019-02-24T15:43:53.588Z,101594.48
2019-02-24T15:48:58.847Z,101590.20
2019-02-24T15:54:04.089Z,101595.71
2019-02-24T15:59:09.406Z,101611.64
2019-02-24T16:04:14.688Z,101609.41
2019-02-24T16:09:20.009Z,101603.46
2019-02-24T16:14:25.287Z,101609.63
2019-02-24T16:19:30.602Z,101608.30
2019-02-24T16:24:35.954Z,101612.61
2019-02-24T16:29:41.130Z,101608.34
2019-02-24T16:34:46.782Z,101612.53
2019-02-24T16:39:52.182Z,101623.81
2019-02-24T16:44:57.709Z,101630.23
2019-02-24T16:50:03.043Z,101645.95
2019-02-24T16:55:09.568Z,101652.73
2019-02-24T17:00:18.556Z,101656.88
2019-02-24T17:05:24.562Z,101672.06
2019-02-24T17:10:30.070Z,101676.48
2019-02-24T17:15:35.402Z,101676.91
2019-02-24T17:20:40.692Z,101681.41
2019-02-24T17:25:46.077Z,101695.37
2019-02-24T17:30:51.682Z,101702.59
2019-02-24T17:35:56.957Z,101713.39
2019-02-24T17:41:02.619Z,101716.50
2019-02-24T17:46:07.990Z,101720.57
2019-02-24T17:51:20.911Z,101726.30
2019-02-24T17:56:20.752Z,101724.98
2019-02-24T18:01:26.259Z,101721.86
2019-02-24T18:06:31.597Z,101720.64
2019-02-24T18:11:36.921Z,101717.59
2019-02-24T18:16:42.196Z,101709.78
2019-02-24T18:21:47.436Z,101712.05
2019-02-24T18:26:52.810Z,101720.93
2019-02-24T18:31:58.215Z,101727.14
2019-02-24T18:37:03.506Z,101726.24
2019-02-24T18:42:08.909Z,101736.00
2019-02-24T18:47:14.250Z,101734.70
2019-02-24T18:52:19.591Z,101732.89
2019-02-24T18:57:24.916Z,101729.80
2019-02-24T19:02:30.171Z,101728.05
2019-02-24T19:07:38.369Z,101732.02
2019-02-24T19:12:43.816Z,101744.88
2019-02-24T19:17:49.342Z,101747.09
2019-02-24T19:22:54.783Z,101756.41
2019-02-24T19:28:00.078Z,101744.45
2019-02-24T19:33:05.414Z,101740.44
2019-02-24T19:38:10.608Z,101738.67
2019-02-24T19:43:15.916Z,101728.47
2019-02-24T19:48:21.561Z,101728.47
2019-02-24T19:53:26.930Z,101723.16
2019-02-24T19:58:32.176Z,101727.12
2019-02-24T20:03:37.573Z,101726.70
2019-02-24T20:08:42.889Z,101733.33
2019-02-24T20:13:48.191Z,101732.89
2019-02-24T20:18:54.437Z,101732.39
2019-02-24T20:23:59.764Z,101725.27
2019-02-24T20:29:05.095Z,101727.04
2019-02-24T20:34:10.550Z,101731.91
2019-02-24T20:39:15.958Z,101734.55
2019-02-24T20:44:21.386Z,101732.73
2019-02-24T20:49:26.602Z,101728.80
2019-02-24T20:54:31.901Z,101732.77
2019-02-24T20:59:37.140Z,101732.77
2019-02-24T21:04:42.625Z,101742.48
2019-02-24T21:09:48.013Z,101746.00
2019-02-24T21:14:53.306Z,101740.69
2019-02-24T21:19:58.508Z,101743.34
2019-02-24T21:25:03.974Z,101752.66
2019-02-24T21:30:10.611Z,101767.32
2019-02-24T21:35:17.329Z,101772.24
2019-02-24T21:40:23.765Z,101781.66
2019-02-24T21:45:29.134Z,101787.33
2019-02-24T21:50:35.723Z,101785.42
2019-02-24T21:55:41.066Z,101780.73
2019-02-24T22:00:46.282Z,101780.73
2019-02-24T22:05:51.580Z,101780.70
2019-02-24T22:10:56.936Z,101780.22
2019-02-24T22:16:02.177Z,101777.08
2019-02-24T22:21:07.590Z,101774.36
2019-02-24T22:26:12.786Z,101769.94
2019-02-24T22:31:17.960Z,101778.06
2019-02-24T22:36:23.133Z,101772.45
2019-02-24T22:41:28.529Z,101770.20
2019-02-24T22:46:33.801Z,101778.11
2019-02-24T22:51:38.976Z,101775.32
2019-02-24T22:56:47.162Z,101777.94
2019-02-24T23:01:53.062Z,101774.39
2019-02-24T23:06:58.301Z,101768.52
2019-02-24T23:12:03.506Z,101775.53
2019-02-24T23:17:08.826Z,101781.63
2019-02-24T23:22:14.060Z,101784.17
2019-02-24T23:27:19.342Z,101777.19
2019-02-24T23:32:25.114Z,101786.56
2019-02-24T23:37:30.441Z,101783.55
2019-02-24T23:42:35.688Z,101779.15
2019-02-24T23:47:40.966Z,101786.59
2019-02-24T23:52:46.276Z,101793.16
2019-02-24T23:57:51.470Z,101793.63
